Terminal Aerodrome Forecast
Issued by NWS Northern Indiana

Home | Current Version | Previous Version | Graphics & Text | Print | Product List | Glossary On
Versions: 1 2 3 4 5 6 7 8 9 10 11 12 13
000
FTUS43 KIWX 262300 RRA
TAFFWA
TAF
KFWA 262340Z 2700/2724 19015G22KT P6SM SCT050 BKN100
     FM270200 21012KT P6SM SCT030 BKN060
      TEMPO 2709/2713 3SM BR BKN020
     FM271400 23015G22KT P6SM SCT030
     FM271700 25016G25KT P6SM BKN045
     FM272300 28010KT P6SM SCT050=

USA.gov is the U.S. government's official web portal to all federal, state and local government web resources and services.